createdAt,value
2022-09-16T00:00:53.972Z,98121.47
2022-09-16T00:03:21.771Z,98120.31
2022-09-16T00:05:52.669Z,98115.81
2022-09-16T00:08:21.123Z,98106.69
2022-09-16T00:10:49.037Z,98122.31
2022-09-16T00:13:19.995Z,98108.19
2022-09-16T00:15:50.973Z,98113.84
2022-09-16T00:18:20.243Z,98111.84
2022-09-16T00:20:50.797Z,98115.66
2022-09-16T00:23:19.657Z,98116.50
2022-09-16T00:25:53.588Z,98116.84
2022-09-16T00:28:21.729Z,98108.66
2022-09-16T00:30:52.132Z,98107.47
2022-09-16T00:33:22.142Z,98118.53
2022-09-16T00:35:51.156Z,98118.53
2022-09-16T00:38:19.636Z,98119.00
2022-09-16T00:40:49.099Z,98111.84
2022-09-16T00:43:19.607Z,98120.03
2022-09-16T00:45:55.727Z,98111.19
2022-09-16T00:48:28.533Z,98104.16
2022-09-16T00:51:01.356Z,98118.84
2022-09-16T00:53:32.232Z,98114.03
2022-09-16T00:56:04.092Z,98111.16
2022-09-16T00:58:39.977Z,98108.31
2022-09-16T01:01:08.276Z,98119.84
2022-09-16T01:03:41.478Z,98120.53
2022-09-16T01:06:11.449Z,98112.66
2022-09-16T01:08:39.477Z,98126.84
2022-09-16T01:11:09.828Z,98122.84
2022-09-16T01:13:38.602Z,98129.19
2022-09-16T01:16:09.812Z,98125.50
2022-09-16T01:18:44.939Z,98116.84
2022-09-16T01:21:27.509Z,98122.50
2022-09-16T01:24:19.329Z,98118.13
2022-09-16T01:27:11.096Z,98109.28
2022-09-16T01:30:07.448Z,98115.16
2022-09-16T01:32:47.386Z,98121.47
2022-09-16T01:35:23.932Z,98115.66
2022-09-16T01:38:02.320Z,98117.81
2022-09-16T01:40:36.231Z,98116.66
2022-09-16T01:43:10.749Z,98110.16
2022-09-16T01:45:45.460Z,98117.16
2022-09-16T01:48:25.206Z,98118.47
2022-09-16T01:51:00.492Z,98118.66
2022-09-16T01:53:33.600Z,98109.81
2022-09-16T01:56:07.035Z,98117.81
2022-09-16T01:58:42.186Z,98112.91
2022-09-16T02:01:15.397Z,98118.44
2022-09-16T02:03:51.814Z,98115.69
2022-09-16T02:06:23.797Z,98113.75
2022-09-16T02:08:56.905Z,98112.44
2022-09-16T02:11:25.931Z,98116.09
2022-09-16T02:14:00.576Z,98110.44
2022-09-16T02:16:33.956Z,98102.75
2022-09-16T02:19:11.649Z,98099.31
2022-09-16T02:21:45.630Z,98101.34
2022-09-16T02:24:18.280Z,98101.41
2022-09-16T02:26:48.432Z,98110.59
2022-09-16T02:29:22.088Z,98109.47
2022-09-16T02:31:55.886Z,98106.63
2022-09-16T02:34:29.347Z,98112.78
2022-09-16T02:37:02.338Z,98102.44
2022-09-16T02:39:33.572Z,98107.91
2022-09-16T02:42:02.295Z,98117.41
2022-09-16T02:44:30.681Z,98113.25
2022-09-16T02:47:07.710Z,98110.56
2022-09-16T02:49:44.118Z,98117.25
2022-09-16T02:52:19.181Z,98111.91
2022-09-16T02:54:52.968Z,98107.09
2022-09-16T02:57:23.341Z,98105.44
2022-09-16T02:59:51.602Z,98109.72
2022-09-16T03:02:19.418Z,98110.53
2022-09-16T03:04:48.805Z,98112.59
2022-09-16T03:07:17.178Z,98110.16
2022-09-16T03:09:48.661Z,98110.91
2022-09-16T03:12:26.524Z,98112.28
2022-09-16T03:15:08.996Z,98114.97
2022-09-16T03:17:56.226Z,98102.00
2022-09-16T03:20:35.203Z,98101.66
2022-09-16T03:23:13.156Z,98108.06
2022-09-16T03:25:50.798Z,98102.88
2022-09-16T03:28:23.479Z,98104.72
2022-09-16T03:31:00.659Z,98105.22
2022-09-16T03:33:33.707Z,98104.06
2022-09-16T03:36:06.674Z,98098.41
2022-09-16T03:38:36.995Z,98097.56
2022-09-16T03:41:05.641Z,98100.59
2022-09-16T03:43:33.304Z,98099.06
2022-09-16T03:46:01.023Z,98097.94
2022-09-16T03:48:29.003Z,98102.41
2022-09-16T03:50:59.679Z,98095.41
2022-09-16T03:53:30.978Z,98093.41
2022-09-16T03:55:58.620Z,98090.41
2022-09-16T03:58:26.426Z,98093.41
2022-09-16T04:00:54.256Z,98096.91
2022-09-16T04:03:22.118Z,98098.09
2022-09-16T04:05:53.752Z,98094.75
2022-09-16T04:08:24.199Z,98092.25
2022-09-16T04:10:57.595Z,98088.38
2022-09-16T04:13:25.314Z,98087.25
2022-09-16T04:15:52.999Z,98083.75
2022-09-16T04:18:20.846Z,98087.03
2022-09-16T04:20:48.589Z,98086.75
2022-09-16T04:23:16.361Z,98082.72
2022-09-16T04:25:44.055Z,98081.09
2022-09-16T04:28:13.115Z,98073.19
2022-09-16T04:30:40.873Z,98074.59
2022-09-16T04:33:08.647Z,98076.84
2022-09-16T04:35:36.389Z,98077.34
2022-09-16T04:38:06.296Z,98072.72
2022-09-16T04:40:34.144Z,98080.19
2022-09-16T04:43:02.047Z,98077.13
2022-09-16T04:45:33.184Z,98077.84
2022-09-16T04:48:00.900Z,98078.75
2022-09-16T04:50:28.661Z,98076.34
2022-09-16T04:52:56.371Z,98072.38
2022-09-16T04:55:26.193Z,98079.16
2022-09-16T04:57:53.892Z,98086.88
2022-09-16T05:00:24.019Z,98089.28
2022-09-16T05:02:54.723Z,98086.66
2022-09-16T05:05:22.562Z,98090.53
2022-09-16T05:07:53.689Z,98096.34
2022-09-16T05:10:21.533Z,98099.63
2022-09-16T05:12:52.034Z,98092.97
2022-09-16T05:15:20.331Z,98101.97
2022-09-16T05:17:51.260Z,98091.84
2022-09-16T05:20:23.174Z,98085.31
2022-09-16T05:22:51.551Z,98082.53
2022-09-16T05:25:21.574Z,98080.72
2022-09-16T05:27:49.329Z,98082.72
2022-09-16T05:30:17.493Z,98084.41
2022-09-16T05:32:45.326Z,98085.78
2022-09-16T05:35:13.279Z,98082.03
2022-09-16T05:37:42.338Z,98079.59
2022-09-16T05:40:10.399Z,98087.19
2022-09-16T05:42:38.174Z,98090.53
2022-09-16T05:45:09.559Z,98085.69
2022-09-16T05:47:37.307Z,98089.69
2022-09-16T05:50:05.975Z,98093.31
2022-09-16T05:52:33.890Z,98096.56
2022-09-16T05:55:03.284Z,98107.44
2022-09-16T05:57:31.303Z,98104.06
2022-09-16T05:59:59.102Z,98096.38
2022-09-16T06:02:26.891Z,98108.13
2022-09-16T06:04:54.625Z,98110.28
2022-09-16T06:07:22.524Z,98099.16
2022-09-16T06:09:50.275Z,98108.16
2022-09-16T06:12:19.349Z,98109.06
2022-09-16T06:14:47.093Z,98106.69
2022-09-16T06:17:14.796Z,98106.94
2022-09-16T06:19:42.432Z,98106.03
2022-09-16T06:22:10.136Z,98109.06
2022-09-16T06:24:37.862Z,98104.81
2022-09-16T06:27:08.545Z,98111.72
2022-09-16T06:29:39.735Z,98107.56
2022-09-16T06:32:07.497Z,98108.28
2022-09-16T06:34:35.182Z,98108.91
2022-09-16T06:37:02.887Z,98113.50
2022-09-16T06:39:30.576Z,98111.09
2022-09-16T06:41:58.294Z,98107.78
2022-09-16T06:44:42.343Z,98122.25
2022-09-16T06:47:10.292Z,98119.75
2022-09-16T06:49:40.460Z,98116.44
2022-09-16T06:52:09.377Z,98124.41
2022-09-16T06:54:37.151Z,98128.66
2022-09-16T06:57:09.913Z,98127.94
2022-09-16T06:59:40.228Z,98131.59
2022-09-16T07:02:10.776Z,98127.44
2022-09-16T07:04:38.883Z,98133.66
2022-09-16T07:07:10.695Z,98141.88
2022-09-16T07:09:38.586Z,98135.13
2022-09-16T07:12:06.760Z,98127.81
2022-09-16T07:14:36.551Z,98135.97
2022-09-16T07:17:08.911Z,98135.72
2022-09-16T07:19:42.278Z,98139.59
2022-09-16T07:22:11.434Z,98129.78
2022-09-16T07:24:39.174Z,98127.53
2022-09-16T07:27:07.096Z,98133.59
2022-09-16T07:29:37.966Z,98140.72
2022-09-16T07:32:05.740Z,98140.41
2022-09-16T07:34:35.669Z,98148.00
2022-09-16T07:37:04.738Z,98144.47
2022-09-16T07:39:34.775Z,98143.31
2022-09-16T07:42:06.082Z,98137.19
2022-09-16T07:44:34.075Z,98134.81
2022-09-16T07:47:01.838Z,98143.47
2022-09-16T07:49:29.557Z,98149.25
2022-09-16T07:51:57.384Z,98152.41
2022-09-16T07:54:26.447Z,98147.94
2022-09-16T07:56:54.103Z,98139.81
2022-09-16T07:59:21.859Z,98143.59
2022-09-16T08:01:50.724Z,98145.16
2022-09-16T08:04:21.529Z,98142.13
2022-09-16T08:06:49.551Z,98137.50
2022-09-16T08:12:07.914Z,98149.16
2022-09-16T08:14:36.001Z,98147.44
2022-09-16T08:17:03.853Z,98147.22
2022-09-16T08:19:31.563Z,98162.00
2022-09-16T08:22:01.323Z,98159.09
2022-09-16T08:24:31.444Z,98163.16
2022-09-16T08:26:59.181Z,98167.66
2022-09-16T08:29:28.339Z,98173.88
2022-09-16T08:31:56.225Z,98172.59
2022-09-16T08:34:24.136Z,98167.09
2022-09-16T08:36:52.007Z,98172.56
2022-09-16T08:39:20.863Z,98166.44
2022-09-16T08:42:07.957Z,98170.13
2022-09-16T08:44:44.511Z,98170.34
2022-09-16T08:47:23.286Z,98167.50
2022-09-16T08:49:53.120Z,98168.19
2022-09-16T08:52:31.957Z,98181.84
2022-09-16T08:55:03.377Z,98182.50
2022-09-16T08:57:35.689Z,98175.16
2022-09-16T09:00:14.519Z,98176.16
2022-09-16T09:02:48.833Z,98172.69
2022-09-16T09:05:19.870Z,98176.75
2022-09-16T09:07:56.591Z,98181.22
2022-09-16T09:10:32.589Z,98179.88
2022-09-16T09:13:10.967Z,98180.75
2022-09-16T09:15:44.399Z,98180.03
2022-09-16T09:18:27.148Z,98177.56
2022-09-16T09:21:10.027Z,98179.22
2022-09-16T09:23:53.481Z,98170.66
2022-09-16T09:26:23.467Z,98165.03
2022-09-16T09:29:15.297Z,98168.84
2022-09-16T09:31:54.257Z,98161.78
2022-09-16T09:34:37.024Z,98162.84
2022-09-16T09:37:30.354Z,98160.22
2022-09-16T09:40:08.644Z,98163.19
2022-09-16T09:42:45.518Z,98171.53
2022-09-16T09:45:24.200Z,98174.72
2022-09-16T09:47:59.177Z,98165.34
2022-09-16T09:50:30.937Z,98166.03
2022-09-16T09:53:12.664Z,98168.22
2022-09-16T09:55:42.800Z,98176.53
2022-09-16T09:58:23.683Z,98167.94
2022-09-16T10:00:53.159Z,98174.59
2022-09-16T10:03:22.668Z,98171.94
2022-09-16T10:05:52.789Z,98175.75
2022-09-16T10:08:27.675Z,98170.94
2022-09-16T10:10:57.114Z,98171.38
2022-09-16T10:13:26.772Z,98168.53
2022-09-16T10:16:10.424Z,98165.72
2022-09-16T10:18:40.474Z,98173.22
2022-09-16T10:21:10.705Z,98168.84
2022-09-16T10:23:39.144Z,98169.91
2022-09-16T10:26:17.764Z,98172.75
2022-09-16T10:28:55.315Z,98171.25
2022-09-16T10:31:24.070Z,98161.75
2022-09-16T10:33:55.972Z,98166.25
2022-09-16T10:36:26.348Z,98169.56
2022-09-16T10:39:02.291Z,98166.44
2022-09-16T10:41:35.330Z,98166.91
2022-09-16T10:44:07.546Z,98158.78
2022-09-16T10:46:35.536Z,98162.28
2022-09-16T10:49:12.971Z,98152.91
2022-09-16T10:51:44.618Z,98155.38
2022-09-16T10:54:25.197Z,98162.88
2022-09-16T10:56:53.589Z,98166.19
2022-09-16T10:59:21.843Z,98172.06
2022-09-16T11:01:59.376Z,98172.28
2022-09-16T11:04:48.839Z,98180.38
2022-09-16T11:07:33.066Z,98176.09
2022-09-16T11:10:11.942Z,98179.50
2022-09-16T11:12:57.211Z,98179.16
2022-09-16T11:15:35.899Z,98178.94
2022-09-16T11:18:19.849Z,98173.75
2022-09-16T11:21:08.689Z,98174.88
2022-09-16T11:23:54.348Z,98185.91
2022-09-16T11:26:31.938Z,98186.56
2022-09-16T11:29:34.207Z,98195.94
2022-09-16T11:32:13.714Z,98185.84
2022-09-16T11:34:55.272Z,98193.84
2022-09-16T11:37:29.590Z,98196.09
2022-09-16T11:40:21.212Z,98196.25
2022-09-16T11:42:57.561Z,98188.47
2022-09-16T11:45:45.604Z,98183.31
2022-09-16T11:48:37.892Z,98183.25
2022-09-16T11:51:13.987Z,98178.56
2022-09-16T11:54:02.689Z,98186.25
2022-09-16T11:56:37.447Z,98181.50
2022-09-16T11:59:14.701Z,98174.94
2022-09-16T12:01:45.480Z,98172.91
2022-09-16T12:04:20.492Z,98166.25
2022-09-16T12:06:55.989Z,98162.94
2022-09-16T12:09:35.228Z,98154.41
2022-09-16T12:12:11.795Z,98154.19
2022-09-16T12:14:43.668Z,98150.47
2022-09-16T12:17:18.483Z,98148.81
2022-09-16T12:19:53.350Z,98146.47
2022-09-16T12:22:24.577Z,98138.75
2022-09-16T12:25:03.519Z,98141.41
2022-09-16T12:27:42.165Z,98144.03
2022-09-16T12:30:16.821Z,98134.91
2022-09-16T12:32:54.632Z,98143.06
2022-09-16T12:35:27.458Z,98144.38
2022-09-16T12:37:57.499Z,98139.38
2022-09-16T12:40:28.944Z,98141.00
2022-09-16T12:43:18.266Z,98143.53
2022-09-16T12:46:09.620Z,98137.75
2022-09-16T12:49:00.004Z,98137.84
2022-09-16T12:52:07.504Z,98130.25
2022-09-16T12:55:08.102Z,98129.19
2022-09-16T12:57:52.544Z,98125.25
2022-09-16T13:00:22.401Z,98130.97
2022-09-16T13:02:53.976Z,98124.78
2022-09-16T13:05:30.857Z,98134.19
2022-09-16T13:08:04.589Z,98131.09
2022-09-16T13:10:54.567Z,98136.13
2022-09-16T13:13:35.432Z,98125.63
2022-09-16T13:16:06.093Z,98115.09
2022-09-16T13:18:43.048Z,98112.38
2022-09-16T13:21:23.541Z,98113.03
2022-09-16T13:24:00.695Z,98102.44
2022-09-16T13:26:40.051Z,98100.81
2022-09-16T13:29:28.411Z,98099.44
2022-09-16T13:34:29.198Z,98096.16
2022-09-16T13:36:57.775Z,98088.91
2022-09-16T13:39:31.581Z,98095.31
2022-09-16T13:42:11.368Z,98100.03
2022-09-16T13:44:44.133Z,98091.09
2022-09-16T13:47:17.196Z,98097.75
2022-09-16T13:49:49.756Z,98096.72
2022-09-16T13:52:21.909Z,98089.31
2022-09-16T13:55:10.088Z,98094.78
2022-09-16T13:58:00.257Z,98090.66
2022-09-16T14:00:37.616Z,98088.63
2022-09-16T14:03:26.743Z,98088.31
2022-09-16T14:06:34.287Z,98088.88
2022-09-16T14:09:13.352Z,98091.19
2022-09-16T14:11:48.959Z,98091.72
2022-09-16T14:14:45.888Z,98084.47
2022-09-16T14:17:18.745Z,98083.31
2022-09-16T14:19:49.560Z,98086.06
2022-09-16T14:22:19.798Z,98087.59
2022-09-16T14:24:50.385Z,98082.69
2022-09-16T14:27:29.771Z,98077.25
2022-09-16T14:29:59.067Z,98076.56
2022-09-16T14:32:31.436Z,98066.72
2022-09-16T14:35:09.511Z,98066.38
2022-09-16T14:37:39.816Z,98073.72
2022-09-16T14:40:13.730Z,98073.53
2022-09-16T14:42:49.159Z,98076.13
2022-09-16T14:45:18.527Z,98076.13
2022-09-16T14:47:52.125Z,98068.09
2022-09-16T14:50:23.232Z,98074.81
2022-09-16T14:52:56.661Z,98079.59
2022-09-16T14:55:28.460Z,98078.53
2022-09-16T14:57:56.452Z,98082.59
2022-09-16T15:00:29.361Z,98081.84
2022-09-16T15:03:04.378Z,98079.25
2022-09-16T15:05:36.713Z,98076.63
2022-09-16T15:08:14.404Z,98078.88
2022-09-16T15:10:52.099Z,98076.78
2022-09-16T15:13:22.922Z,98073.81
2022-09-16T15:15:54.363Z,98082.31
2022-09-16T15:18:28.484Z,98072.69
2022-09-16T15:21:05.619Z,98065.47
2022-09-16T15:23:34.521Z,98069.34
2022-09-16T15:26:13.152Z,98061.56
2022-09-16T15:28:54.333Z,98064.34
2022-09-16T15:31:44.716Z,98065.09
2022-09-16T15:34:24.736Z,98066.97
2022-09-16T15:37:02.198Z,98058.66
2022-09-16T15:39:31.774Z,98066.59
2022-09-16T15:42:13.022Z,98069.69
2022-09-16T15:44:47.616Z,98061.44
2022-09-16T15:47:21.198Z,98072.84
2022-09-16T15:49:54.740Z,98067.13
2022-09-16T15:52:23.283Z,98063.72
2022-09-16T15:54:55.330Z,98072.19
2022-09-16T15:57:30.851Z,98067.09
2022-09-16T16:00:10.900Z,98070.50
2022-09-16T16:02:46.726Z,98069.84
2022-09-16T16:05:18.542Z,98065.91
2022-09-16T16:07:49.789Z,98065.56
2022-09-16T16:10:20.752Z,98067.28
2022-09-16T16:12:48.930Z,98063.78
2022-09-16T16:15:22.489Z,98074.88
2022-09-16T16:17:51.380Z,98073.28
2022-09-16T16:20:21.821Z,98072.16
2022-09-16T16:22:49.828Z,98070.06
2022-09-16T16:25:18.066Z,98064.22
2022-09-16T16:27:46.261Z,98070.19
2022-09-16T16:30:14.750Z,98068.72
2022-09-16T16:32:42.676Z,98071.72
2022-09-16T16:35:16.531Z,98072.03
2022-09-16T16:37:48.245Z,98078.09
2022-09-16T16:40:16.859Z,98079.69
2022-09-16T16:42:45.127Z,98080.19
2022-09-16T16:45:13.427Z,98089.00
2022-09-16T16:47:41.426Z,98078.00
2022-09-16T16:50:10.180Z,98085.19
2022-09-16T16:52:38.359Z,98083.41
2022-09-16T16:55:08.490Z,98083.81
2022-09-16T16:57:36.283Z,98090.97
2022-09-16T17:00:04.759Z,98098.00
2022-09-16T17:02:32.625Z,98107.16
2022-09-16T17:05:00.478Z,98112.69
2022-09-16T17:07:30.345Z,98120.16
2022-09-16T17:10:00.691Z,98132.91
2022-09-16T17:12:30.234Z,98134.81
2022-09-16T17:14:58.042Z,98139.50
2022-09-16T17:17:30.700Z,98152.59
2022-09-16T17:19:59.412Z,98160.13
2022-09-16T17:22:27.429Z,98159.13
2022-09-16T17:24:55.556Z,98158.38
2022-09-16T17:27:26.810Z,98155.09
2022-09-16T17:29:55.883Z,98156.34
2022-09-16T17:32:23.692Z,98153.22
2022-09-16T17:34:51.439Z,98147.28
2022-09-16T17:37:19.885Z,98149.69
2022-09-16T17:39:48.565Z,98147.38
2022-09-16T17:42:16.499Z,98147.13
2022-09-16T17:44:44.259Z,98152.31
2022-09-16T17:47:13.334Z,98164.84
2022-09-16T17:49:41.381Z,98176.31
2022-09-16T17:52:09.348Z,98182.56
2022-09-16T17:54:37.067Z,98178.72
2022-09-16T17:57:04.997Z,98187.09
2022-09-16T17:59:32.836Z,98193.44
2022-09-16T18:02:00.731Z,98190.06
2022-09-16T18:04:31.011Z,98193.00
2022-09-16T18:06:58.780Z,98196.47
2022-09-16T18:09:26.580Z,98193.06
2022-09-16T18:11:54.369Z,98189.31
2022-09-16T18:14:23.541Z,98191.13
2022-09-16T18:16:51.851Z,98196.31
2022-09-16T18:19:22.834Z,98201.41
2022-09-16T18:21:51.945Z,98200.69
2022-09-16T18:24:20.006Z,98197.34
2022-09-16T18:26:47.746Z,98199.34
2022-09-16T18:29:15.544Z,98201.41
2022-09-16T18:31:47.534Z,98206.72
2022-09-16T18:34:16.514Z,98205.03
2022-09-16T18:36:44.422Z,98214.56
2022-09-16T18:39:17.571Z,98214.03
2022-09-16T18:41:48.181Z,98218.84
2022-09-16T18:44:19.547Z,98215.75
2022-09-16T18:46:49.318Z,98216.28
2022-09-16T18:49:18.565Z,98223.69
2022-09-16T18:51:51.331Z,98222.66
2022-09-16T18:54:24.704Z,98220.16
2022-09-16T18:56:55.633Z,98211.91
2022-09-16T18:59:28.357Z,98205.31
2022-09-16T19:01:57.916Z,98204.25
2022-09-16T19:04:30.223Z,98205.03
2022-09-16T19:07:05.629Z,98199.34
2022-09-16T19:09:36.041Z,98203.91
2022-09-16T19:12:03.955Z,98201.25
2022-09-16T19:14:31.871Z,98209.22
2022-09-16T19:17:02.149Z,98211.63
2022-09-16T19:19:29.952Z,98217.72
2022-09-16T19:21:57.724Z,98213.91
2022-09-16T19:24:26.932Z,98210.47
2022-09-16T19:26:56.451Z,98209.97
2022-09-16T19:29:24.516Z,98211.69
2022-09-16T19:31:53.759Z,98217.38
2022-09-16T19:34:22.624Z,98215.56
2022-09-16T19:36:50.612Z,98211.50
2022-09-16T19:39:21.029Z,98217.22
2022-09-16T19:41:48.772Z,98213.69
2022-09-16T19:44:20.368Z,98221.78
2022-09-16T19:46:49.337Z,98227.78
2022-09-16T19:49:19.657Z,98219.00
2022-09-16T19:51:48.231Z,98211.06
2022-09-16T19:54:16.464Z,98223.28
2022-09-16T19:56:49.533Z,98222.41
2022-09-16T19:59:20.116Z,98229.06
2022-09-16T20:01:48.592Z,98232.34
2022-09-16T20:04:20.825Z,98238.91
2022-09-16T20:06:49.055Z,98242.56
2022-09-16T20:09:17.174Z,98248.91
2022-09-16T20:11:47.060Z,98251.19
2022-09-16T20:14:16.775Z,98251.69
2022-09-16T20:16:45.896Z,98248.34
2022-09-16T20:19:16.129Z,98251.41
2022-09-16T20:21:44.620Z,98248.63
2022-09-16T20:24:16.301Z,98249.69
2022-09-16T20:26:44.252Z,98247.81
2022-09-16T20:29:11.933Z,98249.03
2022-09-16T20:31:39.725Z,98254.44
2022-09-16T20:34:08.989Z,98260.41
2022-09-16T20:36:38.634Z,98263.00
2022-09-16T20:39:11.102Z,98267.06
2022-09-16T20:41:41.026Z,98254.84
2022-09-16T20:44:12.388Z,98258.16
2022-09-16T20:46:40.069Z,98254.44
2022-09-16T20:49:10.640Z,98252.84
2022-09-16T20:51:38.471Z,98250.06
2022-09-16T20:54:12.181Z,98249.78
2022-09-16T20:56:41.687Z,98252.44
2022-09-16T20:59:11.297Z,98255.03
2022-09-16T21:01:40.671Z,98266.38
2022-09-16T21:04:13.391Z,98268.31
2022-09-16T21:06:41.476Z,98272.09
2022-09-16T21:09:12.399Z,98264.59
2022-09-16T21:11:44.987Z,98282.78
2022-09-16T21:14:15.441Z,98274.81
2022-09-16T21:16:45.280Z,98281.94
2022-09-16T21:19:14.574Z,98279.47
2022-09-16T21:21:45.988Z,98290.91
2022-09-16T21:24:14.320Z,98284.16
2022-09-16T21:26:43.889Z,98293.38
2022-09-16T21:29:14.017Z,98299.13
2022-09-16T21:31:43.092Z,98295.94
2022-09-16T21:34:14.871Z,98293.44
2022-09-16T21:36:44.480Z,98301.66
2022-09-16T21:39:13.564Z,98300.38
2022-09-16T21:41:41.361Z,98301.50
2022-09-16T21:44:09.133Z,98294.81
2022-09-16T21:46:43.968Z,98302.34
2022-09-16T21:49:18.132Z,98294.13
2022-09-16T21:51:45.890Z,98294.53
2022-09-16T21:54:19.703Z,98299.31
2022-09-16T21:56:48.459Z,98303.19
2022-09-16T21:59:16.642Z,98307.97
2022-09-16T22:01:44.899Z,98308.50
2022-09-16T22:04:15.663Z,98311.19
2022-09-16T22:06:45.835Z,98306.72
2022-09-16T22:09:13.852Z,98313.25
2022-09-16T22:11:43.682Z,98310.34
2022-09-16T22:14:12.393Z,98316.50
2022-09-16T22:16:41.603Z,98310.75
2022-09-16T22:19:11.154Z,98315.25
2022-09-16T22:21:42.714Z,98318.88
2022-09-16T22:24:11.099Z,98323.06
2022-09-16T22:26:39.767Z,98326.72
2022-09-16T22:29:09.102Z,98318.19
2022-09-16T22:31:38.621Z,98311.31
2022-09-16T22:34:06.901Z,98315.66
2022-09-16T22:36:38.383Z,98305.16
2022-09-16T22:39:14.241Z,98309.34
2022-09-16T22:41:42.567Z,98318.72
2022-09-16T22:44:10.625Z,98308.13
2022-09-16T22:46:42.575Z,98310.22
2022-09-16T22:49:11.313Z,98306.88
2022-09-16T22:51:39.402Z,98302.13
2022-09-16T22:54:09.190Z,98301.31
2022-09-16T22:56:37.129Z,98297.78
2022-09-16T22:59:06.508Z,98309.25
2022-09-16T23:01:36.867Z,98315.84
2022-09-16T23:04:06.071Z,98305.19
2022-09-16T23:06:35.532Z,98305.47
2022-09-16T23:09:04.146Z,98302.66
2022-09-16T23:11:34.980Z,98303.53
2022-09-16T23:14:04.135Z,98309.97
2022-09-16T23:16:34.175Z,98312.47
2022-09-16T23:19:04.356Z,98306.59
2022-09-16T23:21:32.485Z,98307.72
2022-09-16T23:24:03.279Z,98315.25
2022-09-16T23:26:33.943Z,98303.53
2022-09-16T23:29:06.508Z,98306.47
2022-09-16T23:31:37.664Z,98312.47
2022-09-16T23:34:07.780Z,98308.56
2022-09-16T23:36:37.585Z,98318.91
2022-09-16T23:39:06.818Z,98314.16
2022-09-16T23:41:36.595Z,98316.81
2022-09-16T23:44:05.496Z,98315.13
2022-09-16T23:46:34.414Z,98323.34
2022-09-16T23:49:02.936Z,98323.94
2022-09-16T23:51:32.245Z,98321.00
2022-09-16T23:54:00.471Z,98321.69
2022-09-16T23:56:30.511Z,98325.31
2022-09-16T23:59:02.565Z,98311.38
